sensor_id;sensor_type;location;lat;lon;timestamp;P1;durP1;ratioP1;P2;durP2;ratioP2
78931;SDS011;68331;53.362;55.932;2023-03-26T00:01:30;18.63;;;8.30;;
78931;SDS011;68331;53.362;55.932;2023-03-26T00:04:03;34.28;;;10.15;;
78931;SDS011;68331;53.362;55.932;2023-03-26T00:06:32;28.50;;;8.98;;
78931;SDS011;68331;53.362;55.932;2023-03-26T00:09:04;28.20;;;8.15;;
78931;SDS011;68331;53.362;55.932;2023-03-26T00:11:32;32.72;;;9.23;;
78931;SDS011;68331;53.362;55.932;2023-03-26T00:13:59;22.17;;;9.50;;
78931;SDS011;68331;53.362;55.932;2023-03-26T00:18:54;31.00;;;8.60;;
78931;SDS011;68331;53.362;55.932;2023-03-26T00:21:23;37.50;;;9.95;;
78931;SDS011;68331;53.362;55.932;2023-03-26T00:23:53;33.67;;;9.57;;
78931;SDS011;68331;53.362;55.932;2023-03-26T00:26:24;37.30;;;9.23;;
78931;SDS011;68331;53.362;55.932;2023-03-26T00:28:56;25.98;;;8.48;;
78931;SDS011;68331;53.362;55.932;2023-03-26T00:31:22;27.83;;;8.98;;
78931;SDS011;68331;53.362;55.932;2023-03-26T00:33:49;23.27;;;9.43;;
78931;SDS011;68331;53.362;55.932;2023-03-26T00:36:18;27.17;;;8.48;;
78931;SDS011;68331;53.362;55.932;2023-03-26T00:38:45;27.17;;;9.63;;
78931;SDS011;68331;53.362;55.932;2023-03-26T00:41:13;25.77;;;8.07;;
78931;SDS011;68331;53.362;55.932;2023-03-26T00:43:48;26.35;;;9.25;;
78931;SDS011;68331;53.362;55.932;2023-03-26T00:46:16;19.80;;;8.20;;
78931;SDS011;68331;53.362;55.932;2023-03-26T00:48:42;15.48;;;8.85;;
78931;SDS011;68331;53.362;55.932;2023-03-26T00:51:09;26.25;;;8.80;;
78931;SDS011;68331;53.362;55.932;2023-03-26T00:53:36;33.42;;;8.43;;
78931;SDS011;68331;53.362;55.932;2023-03-26T00:56:04;28.27;;;8.25;;
78931;SDS011;68331;53.362;55.932;2023-03-26T00:58:31;21.58;;;8.95;;
78931;SDS011;68331;53.362;55.932;2023-03-26T01:00:58;23.50;;;8.60;;
78931;SDS011;68331;53.362;55.932;2023-03-26T01:03:27;34.33;;;8.70;;
78931;SDS011;68331;53.362;55.932;2023-03-26T01:06:00;24.55;;;8.48;;
78931;SDS011;68331;53.362;55.932;2023-03-26T01:08:38;29.63;;;8.90;;
78931;SDS011;68331;53.362;55.932;2023-03-26T01:11:11;35.00;;;8.80;;
78931;SDS011;68331;53.362;55.932;2023-03-26T01:13:49;34.53;;;8.57;;
78931;SDS011;68331;53.362;55.932;2023-03-26T01:18:57;17.95;;;7.50;;
78931;SDS011;68331;53.362;55.932;2023-03-26T01:21:26;27.35;;;8.45;;
78931;SDS011;68331;53.362;55.932;2023-03-26T01:26:42;23.63;;;8.02;;
78931;SDS011;68331;53.362;55.932;2023-03-26T01:29:29;29.98;;;8.23;;
78931;SDS011;68331;53.362;55.932;2023-03-26T01:37:40;19.20;;;8.68;;
78931;SDS011;68331;53.362;55.932;2023-03-26T01:42:53;25.58;;;8.48;;
78931;SDS011;68331;53.362;55.932;2023-03-26T01:45:25;19.13;;;8.32;;
78931;SDS011;68331;53.362;55.932;2023-03-26T01:47:56;22.33;;;9.32;;
78931;SDS011;68331;53.362;55.932;2023-03-26T01:50:23;17.80;;;9.15;;
78931;SDS011;68331;53.362;55.932;2023-03-26T01:52:49;27.95;;;8.80;;
78931;SDS011;68331;53.362;55.932;2023-03-26T01:55:16;26.35;;;9.80;;
78931;SDS011;68331;53.362;55.932;2023-03-26T01:57:50;24.13;;;8.57;;
78931;SDS011;68331;53.362;55.932;2023-03-26T02:00:38;20.45;;;8.73;;
78931;SDS011;68331;53.362;55.932;2023-03-26T02:03:23;24.80;;;9.95;;
78931;SDS011;68331;53.362;55.932;2023-03-26T02:06:05;21.20;;;9.90;;
78931;SDS011;68331;53.362;55.932;2023-03-26T02:08:54;25.85;;;8.23;;
78931;SDS011;68331;53.362;55.932;2023-03-26T02:11:25;35.42;;;10.63;;
78931;SDS011;68331;53.362;55.932;2023-03-26T02:13:51;32.67;;;10.52;;
78931;SDS011;68331;53.362;55.932;2023-03-26T02:16:18;24.88;;;8.73;;
78931;SDS011;68331;53.362;55.932;2023-03-26T02:21:16;24.30;;;9.65;;
78931;SDS011;68331;53.362;55.932;2023-03-26T02:23:47;29.67;;;8.50;;
78931;SDS011;68331;53.362;55.932;2023-03-26T02:26:17;28.38;;;9.88;;
78931;SDS011;68331;53.362;55.932;2023-03-26T02:29:07;38.22;;;12.50;;
78931;SDS011;68331;53.362;55.932;2023-03-26T02:31:35;34.35;;;10.70;;
78931;SDS011;68331;53.362;55.932;2023-03-26T02:34:01;33.47;;;11.43;;
78931;SDS011;68331;53.362;55.932;2023-03-26T02:36:29;39.10;;;11.50;;
78931;SDS011;68331;53.362;55.932;2023-03-26T02:38:59;33.53;;;11.40;;
78931;SDS011;68331;53.362;55.932;2023-03-26T02:41:27;27.42;;;10.48;;
78931;SDS011;68331;53.362;55.932;2023-03-26T02:43:59;28.00;;;10.38;;
78931;SDS011;68331;53.362;55.932;2023-03-26T02:46:45;27.17;;;9.60;;
78931;SDS011;68331;53.362;55.932;2023-03-26T02:49:38;29.85;;;10.35;;
78931;SDS011;68331;53.362;55.932;2023-03-26T02:52:04;27.50;;;11.02;;
78931;SDS011;68331;53.362;55.932;2023-03-26T02:54:32;45.60;;;11.43;;
78931;SDS011;68331;53.362;55.932;2023-03-26T02:57:20;30.20;;;11.98;;
78931;SDS011;68331;53.362;55.932;2023-03-26T02:59:46;35.35;;;10.73;;
78931;SDS011;68331;53.362;55.932;2023-03-26T03:02:37;45.08;;;11.13;;
78931;SDS011;68331;53.362;55.932;2023-03-26T03:05:27;32.97;;;11.10;;
78931;SDS011;68331;53.362;55.932;2023-03-26T03:08:16;36.10;;;10.85;;
78931;SDS011;68331;53.362;55.932;2023-03-26T03:11:16;24.42;;;10.60;;
78931;SDS011;68331;53.362;55.932;2023-03-26T03:13:47;29.65;;;10.38;;
78931;SDS011;68331;53.362;55.932;2023-03-26T03:16:19;19.17;;;9.00;;
78931;SDS011;68331;53.362;55.932;2023-03-26T03:18:46;25.75;;;10.23;;
78931;SDS011;68331;53.362;55.932;2023-03-26T03:21:20;29.67;;;10.40;;
78931;SDS011;68331;53.362;55.932;2023-03-26T03:23:46;25.33;;;10.13;;
78931;SDS011;68331;53.362;55.932;2023-03-26T03:26:14;25.25;;;9.90;;
78931;SDS011;68331;53.362;55.932;2023-03-26T03:28:48;35.08;;;11.20;;
78931;SDS011;68331;53.362;55.932;2023-03-26T03:31:16;35.17;;;11.57;;
78931;SDS011;68331;53.362;55.932;2023-03-26T03:33:42;38.55;;;11.13;;
78931;SDS011;68331;53.362;55.932;2023-03-26T03:36:12;33.38;;;11.85;;
78931;SDS011;68331;53.362;55.932;2023-03-26T03:38:57;36.08;;;13.13;;
78931;SDS011;68331;53.362;55.932;2023-03-26T03:41:27;35.70;;;11.40;;
78931;SDS011;68331;53.362;55.932;2023-03-26T03:43:53;36.55;;;12.30;;
78931;SDS011;68331;53.362;55.932;2023-03-26T03:46:25;35.70;;;12.13;;
78931;SDS011;68331;53.362;55.932;2023-03-26T03:48:51;52.63;;;14.13;;
78931;SDS011;68331;53.362;55.932;2023-03-26T03:51:31;35.67;;;12.75;;
78931;SDS011;68331;53.362;55.932;2023-03-26T03:53:59;34.28;;;12.00;;
78931;SDS011;68331;53.362;55.932;2023-03-26T03:56:52;31.17;;;11.90;;
78931;SDS011;68331;53.362;55.932;2023-03-26T03:59:33;28.88;;;11.23;;
78931;SDS011;68331;53.362;55.932;2023-03-26T04:02:03;31.17;;;11.23;;
78931;SDS011;68331;53.362;55.932;2023-03-26T04:04:38;26.00;;;10.10;;
78931;SDS011;68331;53.362;55.932;2023-03-26T04:07:09;29.92;;;10.82;;
78931;SDS011;68331;53.362;55.932;2023-03-26T04:09:54;24.17;;;8.82;;
78931;SDS011;68331;53.362;55.932;2023-03-26T04:12:22;22.45;;;10.27;;
78931;SDS011;68331;53.362;55.932;2023-03-26T04:15:00;16.55;;;8.82;;
78931;SDS011;68331;53.362;55.932;2023-03-26T04:17:27;18.65;;;9.38;;
78931;SDS011;68331;53.362;55.932;2023-03-26T04:19:55;18.05;;;9.23;;
78931;SDS011;68331;53.362;55.932;2023-03-26T04:22:28;21.23;;;10.60;;
78931;SDS011;68331;53.362;55.932;2023-03-26T04:25:01;16.38;;;9.45;;
78931;SDS011;68331;53.362;55.932;2023-03-26T04:27:49;18.92;;;9.35;;
78931;SDS011;68331;53.362;55.932;2023-03-26T04:30:34;15.95;;;9.18;;
78931;SDS011;68331;53.362;55.932;2023-03-26T04:33:17;16.63;;;9.77;;
78931;SDS011;68331;53.362;55.932;2023-03-26T04:35:43;18.83;;;9.02;;
78931;SDS011;68331;53.362;55.932;2023-03-26T04:38:12;15.38;;;8.88;;
78931;SDS011;68331;53.362;55.932;2023-03-26T04:40:44;15.73;;;8.65;;
78931;SDS011;68331;53.362;55.932;2023-03-26T04:43:15;16.77;;;9.48;;
78931;SDS011;68331;53.362;55.932;2023-03-26T04:46:00;19.80;;;8.93;;
78931;SDS011;68331;53.362;55.932;2023-03-26T04:48:36;18.55;;;9.45;;
78931;SDS011;68331;53.362;55.932;2023-03-26T04:51:06;22.35;;;9.68;;
78931;SDS011;68331;53.362;55.932;2023-03-26T04:53:32;21.45;;;9.48;;
78931;SDS011;68331;53.362;55.932;2023-03-26T04:56:27;22.17;;;10.70;;
78931;SDS011;68331;53.362;55.932;2023-03-26T04:59:24;22.25;;;10.57;;
78931;SDS011;68331;53.362;55.932;2023-03-26T05:02:04;17.73;;;10.20;;
78931;SDS011;68331;53.362;55.932;2023-03-26T05:04:42;17.50;;;9.95;;
78931;SDS011;68331;53.362;55.932;2023-03-26T05:07:10;16.98;;;8.93;;
78931;SDS011;68331;53.362;55.932;2023-03-26T05:09:46;19.60;;;10.05;;
78931;SDS011;68331;53.362;55.932;2023-03-26T05:12:21;22.65;;;9.80;;
78931;SDS011;68331;53.362;55.932;2023-03-26T05:14:55;15.52;;;8.90;;
78931;SDS011;68331;53.362;55.932;2023-03-26T05:17:37;18.10;;;8.48;;
78931;SDS011;68331;53.362;55.932;2023-03-26T05:20:18;17.83;;;9.43;;
78931;SDS011;68331;53.362;55.932;2023-03-26T05:22:49;18.20;;;9.77;;
78931;SDS011;68331;53.362;55.932;2023-03-26T05:25:27;19.20;;;10.20;;
78931;SDS011;68331;53.362;55.932;2023-03-26T05:27:55;16.95;;;9.27;;
78931;SDS011;68331;53.362;55.932;2023-03-26T05:30:24;16.08;;;8.93;;
78931;SDS011;68331;53.362;55.932;2023-03-26T05:32:55;17.95;;;9.10;;
78931;SDS011;68331;53.362;55.932;2023-03-26T05:35:26;15.43;;;8.60;;
78931;SDS011;68331;53.362;55.932;2023-03-26T05:37:53;15.68;;;9.13;;
78931;SDS011;68331;53.362;55.932;2023-03-26T05:40:22;18.92;;;10.10;;
78931;SDS011;68331;53.362;55.932;2023-03-26T05:42:57;15.93;;;8.70;;
78931;SDS011;68331;53.362;55.932;2023-03-26T05:45:33;19.83;;;11.75;;
78931;SDS011;68331;53.362;55.932;2023-03-26T05:48:08;17.63;;;9.25;;
78931;SDS011;68331;53.362;55.932;2023-03-26T05:50:33;14.63;;;9.10;;
78931;SDS011;68331;53.362;55.932;2023-03-26T05:52:59;19.23;;;10.18;;
78931;SDS011;68331;53.362;55.932;2023-03-26T05:55:48;15.85;;;8.98;;
78931;SDS011;68331;53.362;55.932;2023-03-26T05:58:42;15.88;;;9.20;;
78931;SDS011;68331;53.362;55.932;2023-03-26T06:01:27;15.25;;;9.02;;
78931;SDS011;68331;53.362;55.932;2023-03-26T06:04:12;15.75;;;9.55;;
78931;SDS011;68331;53.362;55.932;2023-03-26T06:06:48;17.02;;;10.75;;
78931;SDS011;68331;53.362;55.932;2023-03-26T06:09:14;15.25;;;10.13;;
78931;SDS011;68331;53.362;55.932;2023-03-26T06:11:41;16.52;;;9.32;;
78931;SDS011;68331;53.362;55.932;2023-03-26T06:14:07;18.35;;;10.63;;
78931;SDS011;68331;53.362;55.932;2023-03-26T06:16:36;15.23;;;9.52;;
78931;SDS011;68331;53.362;55.932;2023-03-26T06:19:22;16.73;;;10.00;;
78931;SDS011;68331;53.362;55.932;2023-03-26T06:21:59;15.15;;;9.15;;
78931;SDS011;68331;53.362;55.932;2023-03-26T06:24:30;14.27;;;9.30;;
78931;SDS011;68331;53.362;55.932;2023-03-26T06:27:15;15.77;;;9.57;;
78931;SDS011;68331;53.362;55.932;2023-03-26T06:29:52;15.00;;;9.38;;
78931;SDS011;68331;53.362;55.932;2023-03-26T06:32:32;13.85;;;8.68;;
78931;SDS011;68331;53.362;55.932;2023-03-26T06:35:08;11.55;;;8.35;;
78931;SDS011;68331;53.362;55.932;2023-03-26T06:37:35;14.70;;;8.50;;
78931;SDS011;68331;53.362;55.932;2023-03-26T06:40:02;14.05;;;8.88;;
78931;SDS011;68331;53.362;55.932;2023-03-26T06:42:47;11.55;;;8.77;;
78931;SDS011;68331;53.362;55.932;2023-03-26T06:45:33;13.48;;;8.02;;
78931;SDS011;68331;53.362;55.932;2023-03-26T06:48:18;11.40;;;8.00;;
78931;SDS011;68331;53.362;55.932;2023-03-26T06:51:03;11.27;;;7.55;;
78931;SDS011;68331;53.362;55.932;2023-03-26T06:53:50;11.57;;;7.93;;
78931;SDS011;68331;53.362;55.932;2023-03-26T06:56:36;12.32;;;7.88;;
78931;SDS011;68331;53.362;55.932;2023-03-26T06:59:20;11.07;;;7.90;;
78931;SDS011;68331;53.362;55.932;2023-03-26T07:02:05;9.73;;;7.18;;
78931;SDS011;68331;53.362;55.932;2023-03-26T07:04:49;9.73;;;6.82;;
78931;SDS011;68331;53.362;55.932;2023-03-26T07:07:38;10.00;;;7.47;;
78931;SDS011;68331;53.362;55.932;2023-03-26T07:10:23;9.93;;;7.88;;
78931;SDS011;68331;53.362;55.932;2023-03-26T07:13:13;10.45;;;7.18;;
78931;SDS011;68331;53.362;55.932;2023-03-26T07:16:17;9.63;;;7.60;;
78931;SDS011;68331;53.362;55.932;2023-03-26T07:19:09;10.15;;;7.78;;
78931;SDS011;68331;53.362;55.932;2023-03-26T07:21:38;10.35;;;7.63;;
78931;SDS011;68331;53.362;55.932;2023-03-26T07:24:20;9.90;;;7.10;;
78931;SDS011;68331;53.362;55.932;2023-03-26T07:27:25;10.75;;;7.72;;
78931;SDS011;68331;53.362;55.932;2023-03-26T07:36:24;10.57;;;8.00;;
78931;SDS011;68331;53.362;55.932;2023-03-26T07:39:21;8.60;;;7.22;;
78931;SDS011;68331;53.362;55.932;2023-03-26T07:42:39;9.40;;;7.70;;
78931;SDS011;68331;53.362;55.932;2023-03-26T07:45:40;13.50;;;8.85;;
78931;SDS011;68331;53.362;55.932;2023-03-26T07:48:30;9.57;;;7.20;;
78931;SDS011;68331;53.362;55.932;2023-03-26T07:51:22;12.40;;;8.48;;
78931;SDS011;68331;53.362;55.932;2023-03-26T07:54:04;13.93;;;8.52;;
78931;SDS011;68331;53.362;55.932;2023-03-26T07:57:07;10.18;;;7.95;;
78931;SDS011;68331;53.362;55.932;2023-03-26T07:59:59;11.80;;;8.52;;
78931;SDS011;68331;53.362;55.932;2023-03-26T08:02:47;11.13;;;8.27;;
78931;SDS011;68331;53.362;55.932;2023-03-26T08:06:04;12.25;;;7.63;;
78931;SDS011;68331;53.362;55.932;2023-03-26T08:11:53;12.75;;;8.00;;
78931;SDS011;68331;53.362;55.932;2023-03-26T08:15:09;14.35;;;8.73;;
78931;SDS011;68331;53.362;55.932;2023-03-26T08:17:41;12.27;;;8.93;;
78931;SDS011;68331;53.362;55.932;2023-03-26T08:23:38;11.25;;;8.30;;
78931;SDS011;68331;53.362;55.932;2023-03-26T08:28:40;10.80;;;8.95;;
78931;SDS011;68331;53.362;55.932;2023-03-26T08:31:23;11.20;;;8.43;;
78931;SDS011;68331;53.362;55.932;2023-03-26T08:33:57;14.13;;;9.52;;
78931;SDS011;68331;53.362;55.932;2023-03-26T08:36:24;9.80;;;7.97;;
78931;SDS011;68331;53.362;55.932;2023-03-26T08:38:51;13.18;;;8.80;;
78931;SDS011;68331;53.362;55.932;2023-03-26T09:03:52;11.00;;;8.82;;
78931;SDS011;68331;53.362;55.932;2023-03-26T09:37:57;11.05;;;8.70;;
78931;SDS011;68331;53.362;55.932;2023-03-26T09:48:49;12.23;;;9.27;;
78931;SDS011;68331;53.362;55.932;2023-03-26T09:51:31;11.23;;;8.50;;
78931;SDS011;68331;53.362;55.932;2023-03-26T09:57:28;12.27;;;8.60;;
78931;SDS011;68331;53.362;55.932;2023-03-26T10:00:07;12.98;;;8.60;;
78931;SDS011;68331;53.362;55.932;2023-03-26T10:05:21;12.75;;;8.63;;
78931;SDS011;68331;53.362;55.932;2023-03-26T10:08:40;12.27;;;9.07;;
78931;SDS011;68331;53.362;55.932;2023-03-26T10:11:21;12.40;;;8.73;;
78931;SDS011;68331;53.362;55.932;2023-03-26T10:14:02;13.10;;;8.68;;
78931;SDS011;68331;53.362;55.932;2023-03-26T10:19:28;10.40;;;8.18;;
78931;SDS011;68331;53.362;55.932;2023-03-26T10:36:33;13.98;;;9.77;;
78931;SDS011;68331;53.362;55.932;2023-03-26T10:45:01;12.40;;;9.05;;
78931;SDS011;68331;53.362;55.932;2023-03-26T10:53:46;13.57;;;9.63;;
78931;SDS011;68331;53.362;55.932;2023-03-26T10:59:07;12.18;;;9.77;;
78931;SDS011;68331;53.362;55.932;2023-03-26T11:15:16;15.00;;;10.05;;
78931;SDS011;68331;53.362;55.932;2023-03-26T11:23:33;15.93;;;11.63;;
78931;SDS011;68331;53.362;55.932;2023-03-26T11:29:11;14.50;;;10.27;;
78931;SDS011;68331;53.362;55.932;2023-03-26T11:32:01;15.45;;;11.18;;
78931;SDS011;68331;53.362;55.932;2023-03-26T11:35:32;15.70;;;10.63;;
78931;SDS011;68331;53.362;55.932;2023-03-26T11:37:47;15.85;;;10.25;;
78931;SDS011;68331;53.362;55.932;2023-03-26T11:40:22;15.50;;;10.40;;
78931;SDS011;68331;53.362;55.932;2023-03-26T11:42:59;14.68;;;10.70;;
78931;SDS011;68331;53.362;55.932;2023-03-26T11:45:32;15.52;;;10.60;;
78931;SDS011;68331;53.362;55.932;2023-03-26T11:50:34;15.95;;;11.02;;
78931;SDS011;68331;53.362;55.932;2023-03-26T11:53:13;16.00;;;10.77;;
78931;SDS011;68331;53.362;55.932;2023-03-26T11:55:47;14.75;;;10.93;;
78931;SDS011;68331;53.362;55.932;2023-03-26T11:58:32;14.57;;;10.50;;
78931;SDS011;68331;53.362;55.932;2023-03-26T12:01:23;14.05;;;11.43;;
78931;SDS011;68331;53.362;55.932;2023-03-26T12:03:57;14.10;;;11.10;;
78931;SDS011;68331;53.362;55.932;2023-03-26T12:06:35;16.20;;;10.82;;
78931;SDS011;68331;53.362;55.932;2023-03-26T12:09:01;15.38;;;11.75;;
78931;SDS011;68331;53.362;55.932;2023-03-26T12:11:28;15.27;;;11.45;;
78931;SDS011;68331;53.362;55.932;2023-03-26T12:14:03;15.25;;;10.95;;
78931;SDS011;68331;53.362;55.932;2023-03-26T12:16:30;14.60;;;10.95;;
78931;SDS011;68331;53.362;55.932;2023-03-26T12:19:00;16.40;;;11.75;;
78931;SDS011;68331;53.362;55.932;2023-03-26T12:21:42;13.60;;;11.07;;
78931;SDS011;68331;53.362;55.932;2023-03-26T12:24:29;19.25;;;12.73;;
78931;SDS011;68331;53.362;55.932;2023-03-26T12:27:05;17.65;;;12.55;;
78931;SDS011;68331;53.362;55.932;2023-03-26T12:30:08;16.63;;;11.32;;
78931;SDS011;68331;53.362;55.932;2023-03-26T12:32:44;15.85;;;10.95;;
78931;SDS011;68331;53.362;55.932;2023-03-26T12:35:14;16.80;;;11.60;;
78931;SDS011;68331;53.362;55.932;2023-03-26T12:37:45;15.70;;;11.77;;
78931;SDS011;68331;53.362;55.932;2023-03-26T12:46:18;19.77;;;11.65;;
78931;SDS011;68331;53.362;55.932;2023-03-26T12:48:50;13.95;;;11.32;;
78931;SDS011;68331;53.362;55.932;2023-03-26T13:02:42;18.73;;;12.70;;
78931;SDS011;68331;53.362;55.932;2023-03-26T13:20:08;21.55;;;13.70;;
78931;SDS011;68331;53.362;55.932;2023-03-26T13:27:52;18.98;;;12.85;;
78931;SDS011;68331;53.362;55.932;2023-03-26T13:30:43;20.27;;;12.45;;
78931;SDS011;68331;53.362;55.932;2023-03-26T13:36:24;17.70;;;11.88;;
78931;SDS011;68331;53.362;55.932;2023-03-26T13:39:06;19.83;;;13.70;;
78931;SDS011;68331;53.362;55.932;2023-03-26T13:44:45;20.65;;;12.30;;
78931;SDS011;68331;53.362;55.932;2023-03-26T13:47:29;18.85;;;13.27;;
78931;SDS011;68331;53.362;55.932;2023-03-26T13:50:20;19.98;;;12.23;;
78931;SDS011;68331;53.362;55.932;2023-03-26T13:53:08;17.48;;;11.55;;
78931;SDS011;68331;53.362;55.932;2023-03-26T13:55:46;19.02;;;12.65;;
78931;SDS011;68331;53.362;55.932;2023-03-26T13:58:27;16.70;;;11.40;;
78931;SDS011;68331;53.362;55.932;2023-03-26T14:01:14;15.80;;;11.00;;
78931;SDS011;68331;53.362;55.932;2023-03-26T14:06:43;19.52;;;11.40;;
78931;SDS011;68331;53.362;55.932;2023-03-26T14:12:28;15.25;;;11.65;;
78931;SDS011;68331;53.362;55.932;2023-03-26T14:15:35;18.98;;;11.68;;
78931;SDS011;68331;53.362;55.932;2023-03-26T14:21:27;16.90;;;11.68;;
78931;SDS011;68331;53.362;55.932;2023-03-26T14:26:44;16.67;;;11.52;;
78931;SDS011;68331;53.362;55.932;2023-03-26T14:29:43;16.27;;;11.55;;
78931;SDS011;68331;53.362;55.932;2023-03-26T14:35:19;15.73;;;10.85;;
78931;SDS011;68331;53.362;55.932;2023-03-26T14:40:54;14.95;;;10.80;;
78931;SDS011;68331;53.362;55.932;2023-03-26T14:46:23;14.77;;;11.13;;
78931;SDS011;68331;53.362;55.932;2023-03-26T14:49:24;16.52;;;11.35;;
78931;SDS011;68331;53.362;55.932;2023-03-26T14:54:23;15.52;;;10.48;;
78931;SDS011;68331;53.362;55.932;2023-03-26T15:17:01;15.88;;;11.32;;
78931;SDS011;68331;53.362;55.932;2023-03-26T15:22:27;15.50;;;10.65;;
78931;SDS011;68331;53.362;55.932;2023-03-26T15:42:06;16.45;;;11.32;;
78931;SDS011;68331;53.362;55.932;2023-03-26T15:44:53;20.25;;;12.35;;
78931;SDS011;68331;53.362;55.932;2023-03-26T15:50:38;20.17;;;11.52;;
78931;SDS011;68331;53.362;55.932;2023-03-26T15:53:56;15.82;;;11.60;;
78931;SDS011;68331;53.362;55.932;2023-03-26T16:04:52;19.38;;;11.93;;
78931;SDS011;68331;53.362;55.932;2023-03-26T16:12:27;18.25;;;12.07;;
78931;SDS011;68331;53.362;55.932;2023-03-26T16:20:43;21.70;;;13.02;;
78931;SDS011;68331;53.362;55.932;2023-03-26T16:28:36;16.88;;;11.95;;
78931;SDS011;68331;53.362;55.932;2023-03-26T16:31:31;17.08;;;12.10;;
78931;SDS011;68331;53.362;55.932;2023-03-26T16:36:33;16.98;;;12.13;;
78931;SDS011;68331;53.362;55.932;2023-03-26T16:41:30;19.73;;;12.93;;
78931;SDS011;68331;53.362;55.932;2023-03-26T16:44:01;20.05;;;13.77;;
78931;SDS011;68331;53.362;55.932;2023-03-26T16:46:45;18.63;;;12.43;;
78931;SDS011;68331;53.362;55.932;2023-03-26T16:52:13;21.77;;;13.82;;
78931;SDS011;68331;53.362;55.932;2023-03-26T17:11:28;18.63;;;12.40;;
78931;SDS011;68331;53.362;55.932;2023-03-26T17:20:19;18.75;;;12.65;;
78931;SDS011;68331;53.362;55.932;2023-03-26T17:26:07;18.77;;;13.40;;
78931;SDS011;68331;53.362;55.932;2023-03-26T17:37:03;22.83;;;13.73;;
78931;SDS011;68331;53.362;55.932;2023-03-26T17:44:49;16.77;;;11.65;;
78931;SDS011;68331;53.362;55.932;2023-03-26T17:50:23;19.80;;;12.80;;
78931;SDS011;68331;53.362;55.932;2023-03-26T17:53:03;21.17;;;12.57;;
78931;SDS011;68331;53.362;55.932;2023-03-26T17:55:37;18.05;;;12.25;;
78931;SDS011;68331;53.362;55.932;2023-03-26T17:58:27;17.38;;;12.05;;
78931;SDS011;68331;53.362;55.932;2023-03-26T18:03:45;17.92;;;12.02;;
78931;SDS011;68331;53.362;55.932;2023-03-26T18:09:12;19.25;;;12.85;;
78931;SDS011;68331;53.362;55.932;2023-03-26T18:18:07;18.83;;;11.82;;
78931;SDS011;68331;53.362;55.932;2023-03-26T18:20:47;18.58;;;12.07;;
78931;SDS011;68331;53.362;55.932;2023-03-26T18:23:25;17.38;;;11.40;;
78931;SDS011;68331;53.362;55.932;2023-03-26T18:28:40;16.75;;;11.50;;
78931;SDS011;68331;53.362;55.932;2023-03-26T18:31:24;13.68;;;11.18;;
78931;SDS011;68331;53.362;55.932;2023-03-26T18:33:55;16.60;;;11.13;;
78931;SDS011;68331;53.362;55.932;2023-03-26T18:36:24;19.27;;;11.57;;
78931;SDS011;68331;53.362;55.932;2023-03-26T18:38:58;17.70;;;12.05;;
78931;SDS011;68331;53.362;55.932;2023-03-26T18:41:28;14.93;;;10.60;;
78931;SDS011;68331;53.362;55.932;2023-03-26T18:44:01;16.00;;;11.18;;
78931;SDS011;68331;53.362;55.932;2023-03-26T18:46:37;16.38;;;11.20;;
78931;SDS011;68331;53.362;55.932;2023-03-26T18:49:04;16.92;;;11.25;;
78931;SDS011;68331;53.362;55.932;2023-03-26T18:51:34;15.15;;;10.82;;
78931;SDS011;68331;53.362;55.932;2023-03-26T18:54:03;16.38;;;11.20;;
78931;SDS011;68331;53.362;55.932;2023-03-26T18:59:01;17.90;;;10.63;;
78931;SDS011;68331;53.362;55.932;2023-03-26T19:01:30;16.27;;;10.70;;
78931;SDS011;68331;53.362;55.932;2023-03-26T19:03:59;15.38;;;10.65;;
78931;SDS011;68331;53.362;55.932;2023-03-26T19:06:30;15.40;;;10.27;;
78931;SDS011;68331;53.362;55.932;2023-03-26T19:09:08;17.45;;;12.18;;
78931;SDS011;68331;53.362;55.932;2023-03-26T19:11:46;14.68;;;10.45;;
78931;SDS011;68331;53.362;55.932;2023-03-26T19:14:15;17.80;;;11.65;;
78931;SDS011;68331;53.362;55.932;2023-03-26T19:17:13;16.70;;;10.82;;
78931;SDS011;68331;53.362;55.932;2023-03-26T19:19:42;14.95;;;11.20;;
78931;SDS011;68331;53.362;55.932;2023-03-26T19:22:11;17.70;;;11.43;;
78931;SDS011;68331;53.362;55.932;2023-03-26T19:24:42;14.57;;;10.75;;
78931;SDS011;68331;53.362;55.932;2023-03-26T19:27:52;16.50;;;11.15;;
78931;SDS011;68331;53.362;55.932;2023-03-26T19:30:25;17.05;;;12.07;;
78931;SDS011;68331;53.362;55.932;2023-03-26T19:33:11;17.63;;;12.05;;
78931;SDS011;68331;53.362;55.932;2023-03-26T19:35:50;14.48;;;11.00;;
78931;SDS011;68331;53.362;55.932;2023-03-26T19:38:42;17.65;;;11.57;;
78931;SDS011;68331;53.362;55.932;2023-03-26T19:41:35;17.55;;;10.65;;
78931;SDS011;68331;53.362;55.932;2023-03-26T19:44:26;18.70;;;11.90;;
78931;SDS011;68331;53.362;55.932;2023-03-26T19:47:02;19.58;;;11.40;;
78931;SDS011;68331;53.362;55.932;2023-03-26T19:49:39;14.77;;;10.48;;
78931;SDS011;68331;53.362;55.932;2023-03-26T19:52:19;18.73;;;11.55;;
78931;SDS011;68331;53.362;55.932;2023-03-26T19:55:31;17.02;;;11.52;;
78931;SDS011;68331;53.362;55.932;2023-03-26T19:57:58;18.08;;;11.25;;
78931;SDS011;68331;53.362;55.932;2023-03-26T20:00:24;15.07;;;11.40;;
78931;SDS011;68331;53.362;55.932;2023-03-26T20:02:49;18.15;;;12.18;;
78931;SDS011;68331;53.362;55.932;2023-03-26T20:05:20;19.85;;;12.13;;
78931;SDS011;68331;53.362;55.932;2023-03-26T20:07:48;17.13;;;11.50;;
78931;SDS011;68331;53.362;55.932;2023-03-26T20:10:14;19.52;;;11.10;;
78931;SDS011;68331;53.362;55.932;2023-03-26T20:12:51;19.17;;;11.07;;
78931;SDS011;68331;53.362;55.932;2023-03-26T20:15:26;16.33;;;12.13;;
78931;SDS011;68331;53.362;55.932;2023-03-26T20:17:55;16.63;;;12.02;;
78931;SDS011;68331;53.362;55.932;2023-03-26T20:20:21;18.15;;;11.80;;
78931;SDS011;68331;53.362;55.932;2023-03-26T20:22:55;16.05;;;10.82;;
78931;SDS011;68331;53.362;55.932;2023-03-26T20:25:25;14.60;;;10.68;;
78931;SDS011;68331;53.362;55.932;2023-03-26T20:27:54;16.85;;;10.70;;
78931;SDS011;68331;53.362;55.932;2023-03-26T20:30:21;17.05;;;11.80;;
78931;SDS011;68331;53.362;55.932;2023-03-26T20:32:50;17.65;;;11.35;;
78931;SDS011;68331;53.362;55.932;2023-03-26T20:35:21;18.52;;;13.02;;
78931;SDS011;68331;53.362;55.932;2023-03-26T20:38:03;18.80;;;11.27;;
78931;SDS011;68331;53.362;55.932;2023-03-26T20:40:52;17.10;;;11.18;;
78931;SDS011;68331;53.362;55.932;2023-03-26T20:43:22;15.57;;;11.70;;
78931;SDS011;68331;53.362;55.932;2023-03-26T20:45:49;14.85;;;11.07;;
78931;SDS011;68331;53.362;55.932;2023-03-26T20:48:28;16.40;;;10.75;;
78931;SDS011;68331;53.362;55.932;2023-03-26T20:50:54;17.13;;;11.77;;
78931;SDS011;68331;53.362;55.932;2023-03-26T20:53:21;19.85;;;12.00;;
78931;SDS011;68331;53.362;55.932;2023-03-26T20:55:48;16.98;;;11.02;;
78931;SDS011;68331;53.362;55.932;2023-03-26T20:58:16;17.65;;;12.00;;
78931;SDS011;68331;53.362;55.932;2023-03-26T21:00:46;18.25;;;12.30;;
78931;SDS011;68331;53.362;55.932;2023-03-26T21:03:14;17.38;;;11.15;;
78931;SDS011;68331;53.362;55.932;2023-03-26T21:08:16;16.42;;;11.13;;
78931;SDS011;68331;53.362;55.932;2023-03-26T21:10:45;18.70;;;11.13;;
78931;SDS011;68331;53.362;55.932;2023-03-26T21:15:45;17.25;;;12.80;;